Time;durP1;ratioP1;P1;durP2;ratioP2;P2;SDS_P1;SDS_P2;PMS_P1;PMS_P2;Temp;Humidity;BMP_temperature;BMP_pressure;BME280_temperature;BME280_humidity;BME280_pressure;Samples;Min_cycle;Max_cycle;Signal;HPM_P1;HPM_P2
2023/03/09 00:01:20;;;;;;;19.73;15.20;;;2.50;99.90;;;;;;5154714;27;20373;-68
2023/03/09 00:03:46;;;;;;;21.70;14.70;;;2.50;99.90;;;;;;5154373;27;20087;-69
2023/03/09 00:06:13;;;;;;;20.08;15.18;;;2.60;99.90;;;;;;5154843;27;20046;-69
2023/03/09 00:08:39;;;;;;;20.50;15.38;;;2.90;99.90;;;;;;5154241;27;20042;-69
2023/03/09 00:11:05;;;;;;;20.17;15.40;;;2.50;99.90;;;;;;5136119;27;20042;-68
2023/03/09 00:13:31;;;;;;;19.13;14.57;;;2.70;99.90;;;;;;5154527;27;20400;-69
2023/03/09 00:16:06;;;;;;;22.52;16.38;;;2.50;99.90;;;;;;5154397;27;20043;-69
2023/03/09 00:18:31;;;;;;;22.90;15.02;;;2.50;99.90;;;;;;5154321;27;20045;-68
2023/03/09 00:20:57;;;;;;;19.52;15.38;;;2.50;99.90;;;;;;5154965;27;20043;-69
2023/03/09 00:23:23;;;;;;;18.50;13.73;;;2.50;99.90;;;;;;5154457;27;20042;-68
2023/03/09 00:25:48;;;;;;;18.83;13.38;;;3.00;99.90;;;;;;5154606;27;20106;-70
2023/03/09 00:28:14;;;;;;;15.65;12.85;;;2.50;99.90;;;;;;5154094;27;20038;-69
2023/03/09 00:30:40;;;;;;;17.45;12.43;;;2.50;99.90;;;;;;5154331;27;20109;-68
2023/03/09 00:33:05;;;;;;;19.38;13.00;;;2.50;99.90;;;;;;5154323;27;20038;-69
2023/03/09 00:35:35;;;;;;;20.52;13.32;;;2.80;99.90;;;;;;5135481;27;20125;-69
2023/03/09 00:38:00;;;;;;;17.23;11.70;;;2.50;99.90;;;;;;5153688;27;20043;-68
2023/03/09 00:40:26;;;;;;;17.10;12.57;;;2.50;99.90;;;;;;5135574;27;20053;-69
2023/03/09 00:42:52;;;;;;;15.77;11.60;;;2.50;99.90;;;;;;5153802;27;20043;-69
2023/03/09 00:45:17;;;;;;;14.55;11.48;;;2.50;99.90;;;;;;5136987;27;20046;-69
2023/03/09 00:47:43;;;;;;;17.98;12.65;;;2.50;99.90;;;;;;5122340;27;20451;-69
2023/03/09 00:50:10;;;;;;;18.20;13.13;;;2.40;99.90;;;;;;5158479;27;20059;-69
2023/03/09 00:52:36;;;;;;;14.15;11.48;;;2.40;99.90;;;;;;5157977;27;20047;-69
2023/03/09 00:55:01;;;;;;;14.88;11.30;;;2.90;99.90;;;;;;5157996;27;20047;-68
2023/03/09 00:57:27;;;;;;;17.23;12.35;;;2.30;99.90;;;;;;5157922;27;20099;-68
2023/03/09 00:59:53;;;;;;;16.92;12.35;;;2.30;99.90;;;;;;5158454;27;20043;-69
2023/03/09 01:02:20;;;;;;;15.90;11.95;;;3.60;99.90;;;;;;5157728;27;20046;-69
2023/03/09 01:04:47;;;;;;;15.98;12.02;;;2.40;99.90;;;;;;5158061;27;20417;-68
2023/03/09 01:07:13;;;;;;;15.68;10.95;;;2.30;99.90;;;;;;5157797;27;20043;-68
2023/03/09 01:09:41;;;;;;;13.38;10.48;;;2.30;99.90;;;;;;5139443;27;20069;-69
2023/03/09 01:12:07;;;;;;;14.20;11.00;;;3.20;99.90;;;;;;5158114;27;20055;-69
2023/03/09 01:14:34;;;;;;;15.38;11.05;;;2.30;99.90;;;;;;5157252;27;20479;-69
2023/03/09 01:17:00;;;;;;;15.15;11.10;;;2.40;99.90;;;;;;5157851;27;20049;-70
2023/03/09 01:19:26;;;;;;;13.77;10.45;;;2.30;99.90;;;;;;5157406;27;20050;-69
2023/03/09 01:21:52;;;;;;;14.15;11.30;;;2.30;99.90;;;;;;5157800;27;20043;-70
2023/03/09 01:24:17;;;;;;;15.38;10.32;;;2.40;99.90;;;;;;5157588;27;20121;-69
2023/03/09 01:26:43;;;;;;;13.02;9.48;;;2.40;99.90;;;;;;5157372;27;20070;-69
2023/03/09 01:29:09;;;;;;;14.95;10.25;;;2.70;99.90;;;;;;5138825;27;20136;-69
2023/03/09 01:31:35;;;;;;;14.52;10.80;;;2.10;99.90;;;;;;5157609;27;20047;-70
2023/03/09 01:34:01;;;;;;;13.93;11.05;;;2.10;99.90;;;;;;5157314;27;20126;-68
2023/03/09 01:36:26;;;;;;;13.98;10.65;;;2.80;99.90;;;;;;5157847;27;20047;-70
2023/03/09 01:38:52;;;;;;;13.38;10.88;;;2.00;99.90;;;;;;5157254;27;20487;-69
2023/03/09 01:41:20;;;;;;;14.65;10.70;;;2.00;99.90;;;;;;5157208;27;20053;-68
2023/03/09 01:43:48;;;;;;;13.95;10.57;;;2.00;99.90;;;;;;5157160;27;20045;-69
2023/03/09 01:46:20;;;;;;;15.40;11.20;;;2.30;99.90;;;;;;5157341;27;20050;-70
2023/03/09 01:48:58;;;;;;;15.70;11.45;;;2.00;99.90;;;;;;5138425;27;20055;-68
2023/03/09 01:51:33;;;;;;;16.27;11.13;;;1.90;99.90;;;;;;5138636;27;20125;-69
2023/03/09 01:54:02;;;;;;;13.85;10.57;;;2.00;99.90;;;;;;5157007;27;20050;-68
2023/03/09 01:56:29;;;;;;;12.95;11.13;;;2.20;99.90;;;;;;5156147;27;20479;-71
2023/03/09 01:58:55;;;;;;;13.18;9.60;;;2.30;99.90;;;;;;5156729;27;20117;-69
2023/03/09 02:01:22;;;;;;;14.95;9.95;;;1.80;99.90;;;;;;5156984;27;20051;-69
2023/03/09 02:03:51;;;;;;;13.35;9.88;;;1.90;99.90;;;;;;5156822;27;20091;-69
2023/03/09 02:06:19;;;;;;;11.40;10.15;;;1.80;99.90;;;;;;5156739;27;20038;-69
2023/03/09 02:08:56;;;;;;;14.48;10.93;;;1.80;99.90;;;;;;5138319;27;20054;-70
2023/03/09 02:11:22;;;;;;;14.50;9.80;;;1.80;99.90;;;;;;5137999;27;20440;-69
2023/03/09 02:13:50;;;;;;;15.55;10.75;;;1.80;99.90;;;;;;5156447;27;20099;-69
2023/03/09 02:16:16;;;;;;;13.25;10.50;;;1.80;99.90;;;;;;5137927;27;20050;-69
2023/03/09 02:18:42;;;;;;;13.10;10.57;;;1.80;99.90;;;;;;5138497;27;20057;-69
2023/03/09 02:21:28;;;;;;;13.60;10.80;;;1.70;99.90;;;;;;5156796;27;20481;-69
2023/03/09 02:24:49;;;;;;;13.45;11.00;;;1.70;99.90;;;;;;5138117;27;20038;-70
2023/03/09 02:27:21;;;;;;;11.55;9.82;;;1.70;99.90;;;;;;5081886;27;20062;-69
2023/03/09 02:29:47;;;;;;;13.65;10.40;;;1.70;99.90;;;;;;5156564;27;20427;-70
2023/03/09 02:32:13;;;;;;;14.55;10.23;;;1.70;99.90;;;;;;5155927;27;20105;-69
2023/03/09 02:34:39;;;;;;;13.70;10.65;;;1.70;99.90;;;;;;5155986;27;20098;-69
2023/03/09 02:37:25;;;;;;;14.00;10.75;;;1.70;99.90;;;;;;5155919;27;20050;-69
2023/03/09 02:39:56;;;;;;;13.77;11.40;;;1.70;99.90;;;;;;5155567;27;20378;-70
2023/03/09 02:42:22;;;;;;;14.38;11.50;;;1.70;99.90;;;;;;5156357;27;20492;-69
2023/03/09 02:44:48;;;;;;;14.75;12.00;;;1.80;99.90;;;;;;5137757;27;20051;-69
2023/03/09 02:47:18;;;;;;;18.17;12.20;;;1.70;99.90;;;;;;5155969;27;20049;-70
2023/03/09 02:49:43;;;;;;;15.10;12.60;;;1.70;99.90;;;;;;5155502;27;20126;-69
2023/03/09 02:52:09;;;;;;;19.98;13.02;;;1.90;99.90;;;;;;5155635;27;20103;-70
2023/03/09 02:54:35;;;;;;;16.23;13.95;;;1.70;99.90;;;;;;5155625;27;20130;-69
2023/03/09 02:57:01;;;;;;;19.05;13.13;;;1.70;99.90;;;;;;5155690;27;20042;-70
2023/03/09 02:59:26;;;;;;;18.65;13.50;;;2.20;99.90;;;;;;5155422;27;20054;-70
2023/03/09 03:01:52;;;;;;;20.50;14.05;;;1.80;99.90;;;;;;5155484;27;20046;-69
2023/03/09 03:04:18;;;;;;;21.73;14.93;;;1.70;99.90;;;;;;5155443;27;20082;-70
2023/03/09 03:06:43;;;;;;;22.58;15.63;;;1.70;99.90;;;;;;5155363;27;20054;-69
2023/03/09 03:09:09;;;;;;;19.88;13.93;;;1.70;99.90;;;;;;5136433;27;20113;-70
2023/03/09 03:11:35;;;;;;;22.15;15.27;;;1.70;99.90;;;;;;5155669;27;20054;-70
2023/03/09 03:14:00;;;;;;;21.73;15.07;;;1.80;99.90;;;;;;5155247;27;20078;-69
2023/03/09 03:16:26;;;;;;;23.90;16.20;;;2.20;99.90;;;;;;5155219;27;20050;-69
2023/03/09 03:18:52;;;;;;;20.42;15.98;;;1.90;99.90;;;;;;5155374;27;20056;-69
2023/03/09 03:21:18;;;;;;;20.33;16.80;;;1.70;99.90;;;;;;5154916;27;20445;-69
2023/03/09 03:23:44;;;;;;;23.27;16.83;;;1.70;99.90;;;;;;5155130;27;20126;-68
2023/03/09 03:26:11;;;;;;;23.13;16.25;;;1.70;99.90;;;;;;5155538;27;20035;-69
2023/03/09 03:28:37;;;;;;;25.15;17.60;;;1.70;99.90;;;;;;5155423;27;20085;-69
2023/03/09 03:31:03;;;;;;;22.70;17.08;;;1.70;99.90;;;;;;5155100;27;20047;-70
2023/03/09 03:33:29;;;;;;;22.15;16.70;;;1.70;99.90;;;;;;5155378;27;20050;-68
2023/03/09 03:35:56;;;;;;;23.63;17.70;;;1.90;99.90;;;;;;5136611;27;20395;-69
2023/03/09 03:38:22;;;;;;;21.27;17.33;;;1.70;99.90;;;;;;5154838;27;20034;-69
2023/03/09 03:40:48;;;;;;;24.67;16.95;;;1.60;99.90;;;;;;5154963;27;20042;-68
2023/03/09 03:43:14;;;;;;;24.52;15.85;;;1.60;99.90;;;;;;5154842;27;20051;-69
2023/03/09 03:45:39;;;;;;;19.67;15.38;;;1.70;99.90;;;;;;5154848;27;20045;-69
2023/03/09 03:48:05;;;;;;;19.88;15.27;;;1.70;99.90;;;;;;5136461;27;20051;-69
2023/03/09 03:50:31;;;;;;;21.92;16.20;;;1.80;99.90;;;;;;5154219;27;20528;-68
2023/03/09 03:52:57;;;;;;;19.25;14.98;;;1.60;99.90;;;;;;5136190;27;20087;-68
2023/03/09 03:55:23;;;;;;;20.08;15.32;;;1.60;99.90;;;;;;5136638;27;20081;-69
2023/03/09 03:57:48;;;;;;;26.23;16.63;;;1.60;99.90;;;;;;5154470;27;20126;-68
2023/03/09 04:00:15;;;;;;;20.20;16.80;;;1.80;99.90;;;;;;5154534;27;20045;-69
2023/03/09 04:02:41;;;;;;;22.48;16.13;;;1.70;99.90;;;;;;5154415;27;20122;-68
2023/03/09 04:05:07;;;;;;;23.92;16.27;;;1.70;99.90;;;;;;5136852;27;20443;-69
2023/03/09 04:07:33;;;;;;;21.80;16.02;;;1.70;99.90;;;;;;5136609;27;20463;-69
2023/03/09 04:09:59;;;;;;;23.67;17.55;;;2.10;99.90;;;;;;5154578;27;20047;-68
2023/03/09 04:12:24;;;;;;;25.45;16.77;;;1.70;99.90;;;;;;5136021;27;20401;-70
2023/03/09 04:14:50;;;;;;;21.73;16.48;;;1.70;99.90;;;;;;5154526;27;20042;-68
2023/03/09 04:17:16;;;;;;;24.42;17.42;;;1.70;99.90;;;;;;5119264;27;20043;-68
2023/03/09 04:19:41;;;;;;;21.67;16.80;;;1.70;99.90;;;;;;5154214;27;20043;-70
2023/03/09 04:22:08;;;;;;;24.33;17.67;;;2.00;99.90;;;;;;5154021;27;20129;-68
2023/03/09 04:24:34;;;;;;;24.13;17.30;;;1.80;99.90;;;;;;5154077;27;20054;-68
2023/03/09 04:26:59;;;;;;;26.17;18.63;;;1.70;99.90;;;;;;5135817;27;20046;-68
2023/03/09 04:29:25;;;;;;;24.65;18.17;;;1.70;99.90;;;;;;5154381;27;20050;-69
2023/03/09 04:31:51;;;;;;;24.92;18.48;;;1.80;99.90;;;;;;5154086;27;20046;-68
2023/03/09 04:34:16;;;;;;;25.23;19.27;;;1.90;99.90;;;;;;5154420;27;20043;-68
2023/03/09 04:36:42;;;;;;;23.33;19.25;;;2.00;99.90;;;;;;5136435;27;20054;-70
2023/03/09 04:39:09;;;;;;;24.13;19.25;;;2.10;99.90;;;;;;5157123;27;20427;-70
2023/03/09 04:41:35;;;;;;;30.27;20.90;;;2.10;99.90;;;;;;5158247;27;20043;-68
2023/03/09 04:44:01;;;;;;;27.35;19.70;;;2.20;99.90;;;;;;5157716;27;20050;-69
2023/03/09 04:46:27;;;;;;;27.05;19.55;;;1.70;99.90;;;;;;5156595;27;20400;-69
2023/03/09 04:48:52;;;;;;;29.52;20.30;;;1.70;99.90;;;;;;5154258;27;20035;-70
2023/03/09 04:51:18;;;;;;;25.50;18.92;;;1.70;99.90;;;;;;5153853;27;20061;-68
2023/03/09 04:53:44;;;;;;;28.90;19.42;;;1.70;99.90;;;;;;5154351;27;20432;-69
2023/03/09 04:56:09;;;;;;;27.20;20.23;;;1.70;99.90;;;;;;5135212;27;20396;-69
2023/03/09 04:58:35;;;;;;;25.00;18.85;;;1.70;99.90;;;;;;5135547;27;20039;-70
2023/03/09 05:01:01;;;;;;;25.98;19.00;;;1.80;99.90;;;;;;5153880;27;20381;-70
2023/03/09 05:03:28;;;;;;;27.23;18.23;;;1.70;99.90;;;;;;5135892;27;20455;-69
2023/03/09 05:05:53;;;;;;;24.08;18.10;;;1.70;99.90;;;;;;5153869;27;20042;-69
2023/03/09 05:08:19;;;;;;;23.42;17.67;;;1.90;99.90;;;;;;5153710;27;20049;-68
2023/03/09 05:10:45;;;;;;;22.33;16.58;;;2.00;99.90;;;;;;5135588;27;20102;-67
2023/03/09 05:13:11;;;;;;;20.45;15.32;;;1.90;99.90;;;;;;5153705;27;20047;-68
2023/03/09 05:15:41;;;;;;;19.58;14.23;;;1.70;99.90;;;;;;5135414;27;20051;-67
2023/03/09 05:18:08;;;;;;;21.52;15.18;;;1.70;99.90;;;;;;5154205;27;20039;-69
2023/03/09 05:20:34;;;;;;;21.45;14.80;;;1.70;99.90;;;;;;5153549;27;20070;-67
2023/03/09 05:23:01;;;;;;;17.92;14.38;;;1.70;99.90;;;;;;5153643;27;20042;-67
2023/03/09 05:25:27;;;;;;;18.33;13.73;;;1.70;99.90;;;;;;5135697;27;20051;-69
2023/03/09 05:27:52;;;;;;;17.10;13.80;;;1.70;99.90;;;;;;5135251;27;20378;-68
2023/03/09 05:30:19;;;;;;;16.92;12.68;;;2.10;99.90;;;;;;5153851;27;20215;-67
2023/03/09 05:32:46;;;;;;;19.80;14.57;;;1.70;99.90;;;;;;5138104;27;20403;-69
2023/03/09 05:35:12;;;;;;;20.17;15.38;;;1.70;99.90;;;;;;5157346;27;20054;-68
2023/03/09 05:37:38;;;;;;;21.50;13.98;;;1.70;99.90;;;;;;5138983;27;20046;-68
2023/03/09 05:40:05;;;;;;;18.05;14.30;;;1.70;99.90;;;;;;5157499;27;20054;-68
2023/03/09 05:42:31;;;;;;;21.83;15.55;;;1.60;99.90;;;;;;5157219;27;20054;-68
2023/03/09 05:44:59;;;;;;;18.75;14.57;;;1.60;99.90;;;;;;5157137;27;20046;-68
2023/03/09 05:47:25;;;;;;;19.75;14.32;;;1.60;99.90;;;;;;5157601;27;20390;-68
2023/03/09 05:49:51;;;;;;;19.65;15.27;;;1.70;99.90;;;;;;5138614;27;20039;-68
2023/03/09 05:52:17;;;;;;;19.52;13.95;;;1.70;99.90;;;;;;5157160;27;20424;-68
2023/03/09 05:54:42;;;;;;;19.58;13.70;;;2.00;99.90;;;;;;5156994;27;20050;-69
2023/03/09 05:57:11;;;;;;;22.00;15.20;;;2.00;99.90;;;;;;5157160;27;20047;-69
2023/03/09 05:59:37;;;;;;;19.80;15.05;;;2.10;99.90;;;;;;5157129;27;20096;-68
2023/03/09 06:02:02;;;;;;;19.15;14.27;;;1.70;99.90;;;;;;5138551;27;20397;-69
2023/03/09 06:04:28;;;;;;;19.73;14.90;;;1.70;99.90;;;;;;5138407;27;20082;-69
2023/03/09 06:06:54;;;;;;;18.75;15.00;;;2.10;99.90;;;;;;5156596;27;20513;-69
2023/03/09 06:09:20;;;;;;;23.05;16.67;;;1.70;99.90;;;;;;5138955;27;20105;-68
2023/03/09 06:11:45;;;;;;;25.00;17.65;;;2.00;99.90;;;;;;5138966;27;20057;-68
2023/03/09 06:14:11;;;;;;;27.42;19.75;;;1.70;99.90;;;;;;5156757;27;20122;-69
2023/03/09 06:16:37;;;;;;;23.67;18.00;;;1.70;99.90;;;;;;5156680;27;20043;-69
2023/03/09 06:19:03;;;;;;;25.40;18.30;;;1.80;99.90;;;;;;5156437;27;20046;-71
2023/03/09 06:21:29;;;;;;;28.58;20.02;;;1.70;99.90;;;;;;5156485;27;20043;-69
2023/03/09 06:23:55;;;;;;;25.30;19.35;;;1.70;99.90;;;;;;5156341;27;20114;-68
2023/03/09 06:26:22;;;;;;;24.35;19.05;;;1.80;99.90;;;;;;5156406;27;20046;-68
2023/03/09 06:28:48;;;;;;;22.70;18.33;;;1.80;99.90;;;;;;5137653;27;20043;-69
2023/03/09 06:31:16;;;;;;;30.20;18.98;;;1.80;99.90;;;;;;5156281;27;20043;-69
2023/03/09 06:33:43;;;;;;;20.70;18.27;;;1.80;99.90;;;;;;5137711;27;20499;-68
2023/03/09 06:36:11;;;;;;;24.45;19.63;;;1.80;99.90;;;;;;5156153;27;20043;-69
2023/03/09 06:38:37;;;;;;;22.38;17.85;;;2.20;99.90;;;;;;5156008;27;20042;-69
2023/03/09 06:41:02;;;;;;;24.63;18.00;;;2.30;99.90;;;;;;5156032;27;20133;-70
2023/03/09 06:43:28;;;;;;;22.65;17.75;;;1.80;99.90;;;;;;5156298;27;20098;-68
2023/03/09 06:45:54;;;;;;;22.50;18.08;;;1.80;99.90;;;;;;5156380;27;20451;-69
2023/03/09 06:48:20;;;;;;;25.63;18.90;;;1.80;99.90;;;;;;5156289;27;20458;-69
2023/03/09 06:50:46;;;;;;;24.83;18.80;;;2.20;99.90;;;;;;5155740;27;20168;-69
2023/03/09 06:53:12;;;;;;;21.77;17.05;;;2.00;99.90;;;;;;5155921;27;20084;-69
2023/03/09 06:55:39;;;;;;;23.77;17.20;;;1.80;99.90;;;;;;5155941;27;20058;-69
2023/03/09 06:58:05;;;;;;;24.70;17.95;;;1.90;99.90;;;;;;5155182;27;20059;-68
2023/03/09 07:00:30;;;;;;;27.38;18.42;;;2.30;99.90;;;;;;5156206;27;20461;-70
2023/03/09 07:02:56;;;;;;;22.63;17.30;;;1.90;99.90;;;;;;5156034;27;20130;-70
2023/03/09 07:05:22;;;;;;;23.00;16.40;;;1.90;99.90;;;;;;5155700;27;20114;-68
2023/03/09 07:07:48;;;;;;;20.83;15.57;;;2.00;99.90;;;;;;5155265;27;20451;-69
2023/03/09 07:10:14;;;;;;;21.70;16.92;;;2.10;99.90;;;;;;5155692;27;20049;-68
2023/03/09 07:12:40;;;;;;;23.30;17.95;;;2.10;99.90;;;;;;5156062;27;20455;-69
2023/03/09 07:15:06;;;;;;;20.90;16.20;;;2.10;99.90;;;;;;5155359;27;20046;-68
2023/03/09 07:17:33;;;;;;;18.77;15.38;;;2.10;99.90;;;;;;5137169;27;20465;-69
2023/03/09 07:19:58;;;;;;;18.85;15.32;;;2.20;99.90;;;;;;5154980;27;20135;-69
2023/03/09 07:22:25;;;;;;;17.73;15.40;;;2.30;99.90;;;;;;5155521;27;20050;-69
2023/03/09 07:24:50;;;;;;;20.40;15.48;;;2.30;99.90;;;;;;5155140;27;20054;-70
2023/03/09 07:27:18;;;;;;;17.52;14.95;;;2.30;99.90;;;;;;5155247;27;20042;-68
2023/03/09 07:29:45;;;;;;;19.02;15.80;;;2.30;99.90;;;;;;5155078;27;20045;-69
2023/03/09 07:32:11;;;;;;;18.30;14.07;;;2.30;99.90;;;;;;5136894;27;20061;-69
2023/03/09 07:34:37;;;;;;;19.50;14.50;;;2.30;99.90;;;;;;5136061;27;20098;-69
2023/03/09 07:37:03;;;;;;;18.27;15.35;;;2.30;99.90;;;;;;5136313;27;20054;-69
2023/03/09 07:39:29;;;;;;;20.02;15.13;;;2.40;99.90;;;;;;5154659;27;20433;-69
2023/03/09 07:41:55;;;;;;;23.50;16.75;;;2.40;99.90;;;;;;5154834;27;20053;-68
2023/03/09 07:44:22;;;;;;;17.80;14.60;;;2.80;99.90;;;;;;5155248;27;20111;-69
2023/03/09 07:46:47;;;;;;;18.77;14.38;;;2.40;99.90;;;;;;5154874;27;20360;-68
2023/03/09 07:49:13;;;;;;;21.35;14.63;;;2.60;99.90;;;;;;5154718;27;20061;-70
2023/03/09 07:51:39;;;;;;;15.40;13.35;;;2.60;99.90;;;;;;5154530;27;20487;-70
2023/03/09 07:54:06;;;;;;;18.67;13.82;;;2.90;99.90;;;;;;5154361;27;20066;-69
2023/03/09 07:56:33;;;;;;;16.92;12.35;;;3.40;99.90;;;;;;5136461;27;20109;-70
2023/03/09 07:58:59;;;;;;;17.10;13.52;;;3.30;99.90;;;;;;5154597;27;20039;-68
2023/03/09 08:01:25;;;;;;;15.48;11.77;;;3.30;99.90;;;;;;5154054;27;20050;-69
2023/03/09 08:03:51;;;;;;;16.80;12.55;;;3.40;99.90;;;;;;5154417;27;20047;-70
2023/03/09 08:06:17;;;;;;;12.80;10.85;;;3.50;99.90;;;;;;5154194;27;20057;-69
2023/03/09 08:08:43;;;;;;;14.27;11.52;;;3.60;99.90;;;;;;5154309;27;20075;-68
2023/03/09 08:11:09;;;;;;;21.15;12.57;;;3.70;99.90;;;;;;5154768;27;20066;-69
2023/03/09 08:13:35;;;;;;;14.25;11.10;;;3.70;99.90;;;;;;5154250;27;20434;-70
2023/03/09 08:16:04;;;;;;;17.50;11.60;;;3.90;99.90;;;;;;5136136;27;20043;-69
2023/03/09 08:18:30;;;;;;;14.25;9.93;;;3.70;99.90;;;;;;5136261;27;20114;-70
2023/03/09 08:21:07;;;;;;;13.07;9.13;;;3.80;99.90;;;;;;5154108;27;20464;-69
2023/03/09 08:23:35;;;;;;;12.32;8.95;;;3.90;99.90;;;;;;5135876;27;20038;-69
2023/03/09 08:26:01;;;;;;;16.05;10.18;;;4.00;99.90;;;;;;5153961;27;20069;-68
2023/03/09 08:28:27;;;;;;;12.65;9.60;;;3.90;99.90;;;;;;5154010;27;20440;-69
2023/03/09 08:30:52;;;;;;;15.85;9.82;;;3.90;99.90;;;;;;5136078;27;20034;-69
2023/03/09 08:33:18;;;;;;;11.38;8.60;;;4.00;99.90;;;;;;5154220;27;20455;-68
2023/03/09 08:35:44;;;;;;;13.40;9.95;;;4.10;99.90;;;;;;5154098;27;20487;-70
2023/03/09 08:38:10;;;;;;;11.27;8.75;;;4.10;99.90;;;;;;5153816;27;20120;-69
2023/03/09 08:40:37;;;;;;;12.13;8.80;;;4.10;99.90;;;;;;5153936;27;20123;-69
2023/03/09 08:43:02;;;;;;;11.60;8.90;;;4.10;99.90;;;;;;5154107;27;20051;-68
2023/03/09 08:45:28;;;;;;;12.77;9.10;;;4.10;99.90;;;;;;5153309;27;20122;-68
2023/03/09 08:47:54;;;;;;;11.00;8.73;;;4.10;99.90;;;;;;5154032;27;20130;-69
2023/03/09 08:50:19;;;;;;;13.32;10.05;;;4.00;99.90;;;;;;5153490;27;20046;-69
2023/03/09 08:52:46;;;;;;;11.07;9.63;;;4.00;99.90;;;;;;5134964;27;20043;-68
2023/03/09 08:55:12;;;;;;;13.98;9.80;;;3.90;99.90;;;;;;5153819;27;20059;-69
2023/03/09 08:57:38;;;;;;;16.55;11.48;;;3.80;99.90;;;;;;5135572;27;20434;-69
2023/03/09 09:00:06;;;;;;;14.43;10.77;;;3.70;99.90;;;;;;5153325;27;20145;-69
2023/03/09 09:02:32;;;;;;;15.40;10.75;;;3.70;99.90;;;;;;5153889;27;20165;-69
2023/03/09 09:04:58;;;;;;;11.43;9.07;;;3.70;99.90;;;;;;5135623;27;20475;-69
2023/03/09 09:07:24;;;;;;;14.75;10.70;;;4.00;99.90;;;;;;5156505;27;20047;-68
2023/03/09 09:09:49;;;;;;;13.93;10.75;;;3.60;99.90;;;;;;5157757;27;20450;-70
2023/03/09 09:12:15;;;;;;;13.00;10.63;;;3.70;99.90;;;;;;5157679;27;20043;-68
2023/03/09 09:14:42;;;;;;;13.13;10.48;;;3.80;99.90;;;;;;5157731;27;20126;-68
2023/03/09 09:17:08;;;;;;;11.55;9.35;;;3.80;99.90;;;;;;5157800;27;20126;-68
2023/03/09 09:19:35;;;;;;;13.70;9.50;;;4.00;99.90;;;;;;5139535;27;20042;-69
2023/03/09 09:22:01;;;;;;;14.52;9.85;;;4.10;99.90;;;;;;5157625;27;20043;-69
2023/03/09 09:24:29;;;;;;;12.65;8.85;;;4.20;99.90;;;;;;5157375;27;20095;-69
2023/03/09 09:26:55;;;;;;;11.88;9.93;;;4.30;99.90;;;;;;5157502;27;20049;-69
2023/03/09 09:29:21;;;;;;;12.63;10.45;;;4.30;99.90;;;;;;5158156;27;20042;-69
2023/03/09 09:31:50;;;;;;;13.55;10.50;;;4.30;99.90;;;;;;5122097;27;20039;-70
2023/03/09 09:34:18;;;;;;;11.25;9.38;;;4.40;99.90;;;;;;5139062;27;20043;-69
2023/03/09 09:36:45;;;;;;;12.93;9.85;;;4.60;99.90;;;;;;5157257;27;20046;-70
2023/03/09 09:39:14;;;;;;;15.90;10.40;;;4.90;99.90;;;;;;5157105;27;20118;-69
2023/03/09 09:41:42;;;;;;;12.95;9.23;;;4.90;99.90;;;;;;5138461;27;20497;-69
2023/03/09 09:44:20;;;;;;;10.50;8.27;;;4.80;99.90;;;;;;5156893;27;20074;-69
2023/03/09 09:46:47;;;;;;;12.95;10.63;;;4.90;99.90;;;;;;5157458;27;20121;-70
2023/03/09 09:49:19;;;;;;;12.75;9.07;;;5.10;99.90;;;;;;5156971;27;20039;-70
2023/03/09 09:51:57;;;;;;;11.32;9.85;;;5.40;99.90;;;;;;5157060;27;20061;-70
2023/03/09 09:54:40;;;;;;;12.35;9.55;;;5.80;99.90;;;;;;5157118;27;20077;-70
2023/03/09 09:57:12;;;;;;;;;;;6.40;99.90;;;;;;5157169;27;20501;-68
2023/03/09 09:59:58;;;;;;;12.40;9.70;;;6.60;99.90;;;;;;5157099;27;19919;-69
2023/03/09 10:02:43;;;;;;;12.40;9.18;;;6.30;99.90;;;;;;5138468;27;20042;-68
2023/03/09 10:05:45;;;;;;;13.90;9.65;;;5.70;99.90;;;;;;5156812;27;20085;-69
2023/03/09 10:08:32;;;;;;;11.23;8.63;;;5.30;99.90;;;;;;5156568;27;20043;-69
2023/03/09 10:11:20;;;;;;;10.98;9.10;;;4.90;99.90;;;;;;5156649;27;20126;-68
2023/03/09 10:13:51;;;;;;;11.68;8.65;;;4.80;99.90;;;;;;5156097;27;20106;-68
2023/03/09 10:16:23;;;;;;;12.65;9.18;;;4.90;99.90;;;;;;5138321;27;20086;-68
2023/03/09 10:19:00;;;;;;;12.02;9.27;;;4.90;99.90;;;;;;5137895;27;20121;-71
2023/03/09 10:21:31;;;;;;;10.55;9.32;;;4.80;99.90;;;;;;5138762;27;20062;-69
2023/03/09 10:24:01;;;;;;;11.90;9.32;;;4.80;99.90;;;;;;5155722;27;20463;-69
2023/03/09 10:26:49;;;;;;;11.60;9.35;;;4.80;99.90;;;;;;5156264;27;20125;-69
2023/03/09 10:29:23;;;;;;;14.05;10.48;;;4.80;99.90;;;;;;5137927;27;20050;-69
2023/03/09 10:31:58;;;;;;;10.65;9.23;;;4.60;99.90;;;;;;5156358;27;20046;-68
2023/03/09 10:34:25;;;;;;;12.95;9.98;;;4.60;99.90;;;;;;5156507;27;20099;-68
2023/03/09 10:36:54;;;;;;;13.85;9.32;;;4.60;99.90;;;;;;5156313;27;20109;-68
2023/03/09 10:39:21;;;;;;;14.80;9.27;;;4.50;99.90;;;;;;5138050;27;20411;-68
2023/03/09 10:41:47;;;;;;;10.23;9.13;;;4.70;99.90;;;;;;5137822;27;20046;-68
2023/03/09 10:44:17;;;;;;;10.63;9.10;;;4.80;99.90;;;;;;5156014;27;20174;-68
2023/03/09 10:47:00;;;;;;;17.48;10.00;;;4.80;99.90;;;;;;5137399;27;20039;-69
2023/03/09 10:49:26;;;;;;;13.60;9.80;;;4.70;99.90;;;;;;5156126;27;20096;-69
2023/03/09 10:52:00;;;;;;;12.25;10.38;;;4.60;99.90;;;;;;5137720;27;20054;-68
2023/03/09 10:54:36;;;;;;;10.77;8.65;;;4.70;99.90;;;;;;5137164;27;20473;-68
2023/03/09 10:57:28;;;;;;;11.20;8.82;;;4.60;99.90;;;;;;5155577;27;20039;-68
2023/03/09 11:00:18;;;;;;;13.18;9.70;;;4.60;99.90;;;;;;5155946;27;20126;-68
2023/03/09 11:02:55;;;;;;;12.05;10.18;;;4.50;99.90;;;;;;5144353;27;20050;-68
2023/03/09 11:05:23;;;;;;;13.95;9.65;;;4.60;99.90;;;;;;5155787;27;20058;-69
2023/03/09 11:07:54;;;;;;;14.07;10.65;;;4.70;99.90;;;;;;5137235;27;20046;-68
2023/03/09 11:10:29;;;;;;;10.07;9.05;;;4.80;99.90;;;;;;5155831;27;20049;-69
2023/03/09 11:12:56;;;;;;;11.50;8.90;;;4.80;99.90;;;;;;5155221;27;20050;-69
2023/03/09 11:15:33;;;;;;;11.15;8.65;;;4.90;99.90;;;;;;5155323;27;20041;-68
2023/03/09 11:18:00;;;;;;;10.95;9.57;;;4.90;99.90;;;;;;5136611;27;20109;-68
2023/03/09 11:20:37;;;;;;;11.73;9.73;;;4.90;99.90;;;;;;5155191;27;20086;-69
2023/03/09 11:23:31;;;;;;;11.35;9.13;;;4.90;99.90;;;;;;5155518;27;20042;-69
2023/03/09 11:26:34;;;;;;;14.57;9.65;;;5.00;99.90;;;;;;5120059;27;20043;-70
2023/03/09 11:29:32;;;;;;;10.63;8.85;;;5.00;99.90;;;;;;5140877;27;20179;-68
2023/03/09 11:31:58;;;;;;;9.48;8.48;;;5.10;99.90;;;;;;5155111;27;20047;-68
2023/03/09 11:34:36;;;;;;;10.60;8.85;;;5.20;99.90;;;;;;5155273;27;20179;-68
2023/03/09 11:37:19;;;;;;;11.48;8.90;;;5.30;99.90;;;;;;5136575;27;20034;-68
2023/03/09 11:39:50;;;;;;;13.43;9.45;;;5.40;99.90;;;;;;5155040;27;20038;-67
2023/03/09 11:42:53;;;;;;;12.75;9.40;;;5.50;99.90;;;;;;5154755;27;20049;-68
2023/03/09 11:45:21;;;;;;;12.95;9.18;;;5.50;99.90;;;;;;5136342;27;20085;-67
2023/03/09 11:47:55;;;;;;;10.77;8.88;;;5.40;99.90;;;;;;5154715;27;20130;-68
2023/03/09 11:50:50;;;;;;;11.05;8.88;;;5.40;99.90;;;;;;5154623;27;20126;-69
2023/03/09 11:53:47;;;;;;;11.35;9.35;;;5.40;99.90;;;;;;5154759;27;20131;-68
2023/03/09 11:56:27;;;;;;;10.52;8.80;;;5.40;99.90;;;;;;5136045;27;20135;-68
2023/03/09 11:59:37;;;;;;;12.60;8.93;;;5.40;99.90;;;;;;5154837;27;20407;-68
2023/03/09 12:02:19;;;;;;;11.27;8.63;;;5.30;99.90;;;;;;5154651;27;20451;-69
2023/03/09 12:04:51;;;;;;;15.40;9.80;;;5.30;99.90;;;;;;5155111;27;20086;-68
2023/03/09 12:07:22;;;;;;;14.45;9.25;;;5.30;99.90;;;;;;5155214;27;20280;-69
2023/03/09 12:09:47;;;;;;;12.05;8.68;;;5.30;99.90;;;;;;5154625;27;20039;-68
2023/03/09 12:12:42;;;;;;;13.85;10.10;;;5.30;99.90;;;;;;5136024;27;20103;-68
2023/03/09 12:15:52;;;;;;;12.45;9.30;;;5.20;99.90;;;;;;5155027;27;20125;-68
2023/03/09 12:18:30;;;;;;;9.68;8.40;;;5.10;99.90;;;;;;5070092;28;20049;-69
2023/03/09 12:20:59;;;;;;;9.93;8.05;;;5.10;99.90;;;;;;5070744;28;20052;-69
2023/03/09 12:23:39;;;;;;;11.32;8.93;;;5.20;99.90;;;;;;5121170;27;20051;-68
2023/03/09 12:26:27;;;;;;;10.68;8.68;;;5.10;99.90;;;;;;5136091;27;20058;-68
2023/03/09 12:29:21;;;;;;;12.40;9.90;;;5.20;99.90;;;;;;5154976;27;20051;-68
2023/03/09 12:32:17;;;;;;;11.95;8.98;;;5.30;99.90;;;;;;5136297;27;20047;-69
2023/03/09 12:34:44;;;;;;;11.13;9.27;;;5.40;99.90;;;;;;5154175;27;20046;-68
2023/03/09 12:37:28;;;;;;;9.93;8.77;;;5.30;99.90;;;;;;5153792;27;20597;-68
2023/03/09 12:40:37;;;;;;;10.65;8.00;;;5.30;99.90;;;;;;5155555;27;20107;-68
2023/03/09 12:43:15;;;;;;;15.30;9.25;;;5.30;99.90;;;;;;5149070;27;20055;-68
2023/03/09 12:45:47;;;;;;;11.63;9.18;;;5.20;99.90;;;;;;5143122;27;20052;-68
2023/03/09 12:48:32;;;;;;;11.10;8.45;;;5.10;99.90;;;;;;5142356;27;20053;-68
2023/03/09 12:51:02;;;;;;;12.23;9.55;;;5.10;99.90;;;;;;5162506;27;20485;-70
2023/03/09 12:53:33;;;;;;;14.82;10.85;;;5.10;99.90;;;;;;5166611;27;20054;-68